Bloomington, IL (61701)

7:14 PM CDT on September 20, 2014 (GMT -0500)
Across from IWU | Change Station
CLOSE
Current Station
Personal Weather Station
Location: Bloomington, IL
Elevation: 810 ft
Nearby Weather Stations

Elev 810 ft 40.49 °N, 88.99 °W | Updated 3 minutes ago

Clear
Clear
75.9 °F
Feels Like 77 °F
N
2.0
Wind Variable Wind from SSW
Gusts 7.0 mph

Today
High -- | Low -- °F
--% Chance of Precip.
Yesterday
High -- | Low -- °F
Precip. -- in
6:41 AM 6:56 PM
Waning Crescent, 10% visible
Pressure 29.84 in
Visibility 10.0 miles
Clouds Clear
Heat Index 77 °F
Dew Point 70 °F
Humidity 82%
Rainfall 0.57 in
Snow Depth Not available.
UV 0 out of 12
Pollen 5.70 out of 12
Air Quality Not available.
Flu Activity Not available.
METAR KBMI 202356Z 22009KT 10SM CLR 24/20 A2986 RMK AO2 58006 60031 T00000000 10366 20211 SLP105 $

More Conditions Fewer Conditions

Pressure 29.84 in
Visibility 10.0 miles
Clouds Clear
Heat Index 77 °F
Dew Point 70 °F
Humidity 82%
Rainfall 0.57 in
Snow Depth Not available.
UV 0 out of 12
Pollen 5.70 out of 12
Air Quality Not available.
Flu Activity Not available.
METAR KBMI 202356Z 22009KT 10SM CLR 24/20 A2986 RMK AO2 58006 60031 T00000000 10366 20211 SLP105 $

More Conditions Fewer Conditions

10-Day Weather Forecast

Almanac

Astronomy

Sep. 20, 2014 Rise Set
Actual Time 6:41 AM CDT 6:56 PM CDT
Civil Twilight 6:14 AM CDT 7:23 PM CDT
Nautical Twilight 5:42 AM CDT 7:55 PM CDT
Astronomical Twilight 5:09 AM CDT 8:28 PM CDT
Moon 3:20 AM CDT (9/20) 5:00 PM CDT (9/20)
Length of Visible Light 13h 09m
Length of Day
12h 14m
Tomorrow will be 2m 39s shorter.
Waning Crescent, 10% of the Moon is Illuminated
Today
Waning Crescent
Sep 24
New
Oct 1
First Quarter
Oct 8
Full
Oct 15
Last Quarter

Today's Extremes

State Highs State Lows

Community

WunderPhotos

Upload Photos

1,754,997 photos uploaded!

WunderBlogs® & News

Nearby

Snow Depth

Station Depth Elevation
No new snow has been reported.

Earthquake Activity

City Distance Mag. Time & Date
No recent earthquake activity has been reported nearby.
Minimum magnitude displayed is 2.5.

Coastal Water Temperatures

Place Temperature
No Stations Reporting

Nearby Weather Stations